sensor_id;sensor_type;location;lat;lon;timestamp;P1;durP1;ratioP1;P2;durP2;ratioP2
47305;SDS011;33043;48.390;11.734;2022-07-04T03:31:08;6.07;;;4.20;;
47305;SDS011;33043;48.390;11.734;2022-07-04T03:33:34;8.48;;;4.07;;
47305;SDS011;33043;48.390;11.734;2022-07-04T03:36:00;3.92;;;3.53;;
47305;SDS011;33043;48.390;11.734;2022-07-04T03:38:27;6.20;;;3.78;;
47305;SDS011;33043;48.390;11.734;2022-07-04T03:40:53;5.53;;;3.85;;
47305;SDS011;33043;48.390;11.734;2022-07-04T03:43:19;4.87;;;3.33;;
47305;SDS011;33043;48.390;11.734;2022-07-04T03:45:45;6.70;;;3.70;;
47305;SDS011;33043;48.390;11.734;2022-07-04T03:48:12;3.75;;;3.22;;
47305;SDS011;33043;48.390;11.734;2022-07-04T03:50:38;3.45;;;2.90;;
47305;SDS011;33043;48.390;11.734;2022-07-04T03:53:04;4.15;;;3.47;;
47305;SDS011;33043;48.390;11.734;2022-07-04T03:55:30;8.07;;;3.60;;
47305;SDS011;33043;48.390;11.734;2022-07-04T03:57:57;5.62;;;3.15;;
47305;SDS011;33043;48.390;11.734;2022-07-04T04:00:23;4.85;;;3.22;;
47305;SDS011;33043;48.390;11.734;2022-07-04T04:02:49;4.53;;;3.40;;
47305;SDS011;33043;48.390;11.734;2022-07-04T04:05:15;6.78;;;3.55;;
47305;SDS011;33043;48.390;11.734;2022-07-04T04:07:58;6.07;;;3.30;;
47305;SDS011;33043;48.390;11.734;2022-07-04T04:10:24;5.90;;;3.15;;
47305;SDS011;33043;48.390;11.734;2022-07-04T04:12:51;7.80;;;3.55;;
47305;SDS011;33043;48.390;11.734;2022-07-04T04:15:17;5.53;;;3.60;;
47305;SDS011;33043;48.390;11.734;2022-07-04T04:17:43;5.95;;;3.17;;
47305;SDS011;33043;48.390;11.734;2022-07-04T04:20:10;3.72;;;3.40;;
47305;SDS011;33043;48.390;11.734;2022-07-04T04:22:36;6.53;;;3.45;;
47305;SDS011;33043;48.390;11.734;2022-07-04T04:25:03;4.82;;;3.72;;
47305;SDS011;33043;48.390;11.734;2022-07-04T04:27:29;6.18;;;3.30;;
47305;SDS011;33043;48.390;11.734;2022-07-04T04:29:55;5.43;;;3.42;;
47305;SDS011;33043;48.390;11.734;2022-07-04T04:32:21;3.90;;;3.20;;
47305;SDS011;33043;48.390;11.734;2022-07-04T04:34:48;4.45;;;3.47;;
47305;SDS011;33043;48.390;11.734;2022-07-04T04:37:14;5.25;;;3.28;;
47305;SDS011;33043;48.390;11.734;2022-07-04T04:39:40;3.67;;;3.00;;
47305;SDS011;33043;48.390;11.734;2022-07-04T04:42:06;6.22;;;3.47;;
47305;SDS011;33043;48.390;11.734;2022-07-04T04:44:33;6.20;;;3.65;;
47305;SDS011;33043;48.390;11.734;2022-07-04T04:46:59;4.90;;;4.03;;
47305;SDS011;33043;48.390;11.734;2022-07-04T04:49:25;4.53;;;3.42;;
47305;SDS011;33043;48.390;11.734;2022-07-04T04:51:51;5.72;;;3.85;;
47305;SDS011;33043;48.390;11.734;2022-07-04T04:54:18;6.55;;;3.78;;
47305;SDS011;33043;48.390;11.734;2022-07-04T04:56:44;11.00;;;5.55;;
47305;SDS011;33043;48.390;11.734;2022-07-04T04:59:10;8.52;;;4.82;;
47305;SDS011;33043;48.390;11.734;2022-07-04T05:01:36;6.68;;;4.28;;
47305;SDS011;33043;48.390;11.734;2022-07-04T05:04:03;4.97;;;4.03;;
47305;SDS011;33043;48.390;11.734;2022-07-04T05:06:29;10.35;;;4.50;;
47305;SDS011;33043;48.390;11.734;2022-07-04T05:08:55;7.25;;;3.78;;
47305;SDS011;33043;48.390;11.734;2022-07-04T05:11:23;6.87;;;3.40;;
47305;SDS011;33043;48.390;11.734;2022-07-04T05:13:49;6.60;;;3.33;;
47305;SDS011;33043;48.390;11.734;2022-07-04T05:16:15;6.47;;;3.40;;
47305;SDS011;33043;48.390;11.734;2022-07-04T05:18:41;8.27;;;3.15;;
47305;SDS011;33043;48.390;11.734;2022-07-04T05:21:08;8.05;;;3.08;;
47305;SDS011;33043;48.390;11.734;2022-07-04T05:23:34;11.55;;;3.20;;
47305;SDS011;33043;48.390;11.734;2022-07-04T05:26:00;7.45;;;3.37;;
47305;SDS011;33043;48.390;11.734;2022-07-04T05:28:27;5.75;;;2.95;;
47305;SDS011;33043;48.390;11.734;2022-07-04T05:30:53;4.50;;;2.40;;
47305;SDS011;33043;48.390;11.734;2022-07-04T05:33:19;5.57;;;2.70;;
47305;SDS011;33043;48.390;11.734;2022-07-04T05:35:45;6.40;;;3.22;;
47305;SDS011;33043;48.390;11.734;2022-07-04T05:38:12;2.72;;;2.50;;
47305;SDS011;33043;48.390;11.734;2022-07-04T05:40:38;3.80;;;2.92;;
47305;SDS011;33043;48.390;11.734;2022-07-04T05:43:04;3.95;;;2.47;;
47305;SDS011;33043;48.390;11.734;2022-07-04T05:45:30;6.80;;;3.25;;
47305;SDS011;33043;48.390;11.734;2022-07-04T05:47:57;6.72;;;3.05;;
47305;SDS011;33043;48.390;11.734;2022-07-04T05:50:23;4.93;;;2.97;;
47305;SDS011;33043;48.390;11.734;2022-07-04T05:52:49;5.30;;;2.67;;
47305;SDS011;33043;48.390;11.734;2022-07-04T05:55:15;3.33;;;2.50;;
47305;SDS011;33043;48.390;11.734;2022-07-04T05:57:42;7.10;;;2.70;;
47305;SDS011;33043;48.390;11.734;2022-07-04T06:00:08;4.12;;;2.80;;
47305;SDS011;33043;48.390;11.734;2022-07-04T06:02:34;4.90;;;2.80;;
47305;SDS011;33043;48.390;11.734;2022-07-04T06:05:01;5.05;;;3.17;;
47305;SDS011;33043;48.390;11.734;2022-07-04T06:07:27;4.60;;;2.70;;
47305;SDS011;33043;48.390;11.734;2022-07-04T06:09:53;3.28;;;2.72;;
47305;SDS011;33043;48.390;11.734;2022-07-04T06:12:19;4.85;;;2.35;;
47305;SDS011;33043;48.390;11.734;2022-07-04T06:14:46;3.65;;;2.30;;
47305;SDS011;33043;48.390;11.734;2022-07-04T06:17:12;4.62;;;2.40;;
47305;SDS011;33043;48.390;11.734;2022-07-04T06:19:38;6.05;;;2.30;;
47305;SDS011;33043;48.390;11.734;2022-07-04T06:22:04;3.05;;;2.42;;
47305;SDS011;33043;48.390;11.734;2022-07-04T06:24:33;3.47;;;2.50;;
47305;SDS011;33043;48.390;11.734;2022-07-04T06:26:59;2.60;;;1.87;;
47305;SDS011;33043;48.390;11.734;2022-07-04T06:29:25;4.47;;;2.47;;
47305;SDS011;33043;48.390;11.734;2022-07-04T06:31:53;5.30;;;2.05;;
47305;SDS011;33043;48.390;11.734;2022-07-04T06:34:19;4.07;;;2.30;;
47305;SDS011;33043;48.390;11.734;2022-07-04T06:37:04;1.80;;;1.70;;
47305;SDS011;33043;48.390;11.734;2022-07-04T06:39:30;10.82;;;2.58;;
47305;SDS011;33043;48.390;11.734;2022-07-04T06:41:57;23.87;;;2.75;;
47305;SDS011;33043;48.390;11.734;2022-07-04T06:44:23;9.52;;;2.50;;
47305;SDS011;33043;48.390;11.734;2022-07-04T06:46:49;11.48;;;2.20;;
47305;SDS011;33043;48.390;11.734;2022-07-04T06:49:16;2.72;;;1.98;;
47305;SDS011;33043;48.390;11.734;2022-07-04T06:51:42;4.35;;;2.10;;
47305;SDS011;33043;48.390;11.734;2022-07-04T06:54:09;9.45;;;2.55;;
47305;SDS011;33043;48.390;11.734;2022-07-04T06:56:35;6.00;;;2.37;;
47305;SDS011;33043;48.390;11.734;2022-07-04T06:59:01;6.32;;;1.83;;
47305;SDS011;33043;48.390;11.734;2022-07-04T07:01:30;4.45;;;2.12;;
47305;SDS011;33043;48.390;11.734;2022-07-04T07:03:56;4.95;;;1.92;;
47305;SDS011;33043;48.390;11.734;2022-07-04T07:06:22;3.45;;;2.47;;
47305;SDS011;33043;48.390;11.734;2022-07-04T07:08:49;3.53;;;2.25;;
47305;SDS011;33043;48.390;11.734;2022-07-04T07:11:15;4.95;;;1.90;;
47305;SDS011;33043;48.390;11.734;2022-07-04T07:13:46;8.57;;;2.40;;
47305;SDS011;33043;48.390;11.734;2022-07-04T07:16:13;4.37;;;2.37;;
47305;SDS011;33043;48.390;11.734;2022-07-04T07:18:39;6.00;;;2.10;;
47305;SDS011;33043;48.390;11.734;2022-07-04T07:21:06;4.90;;;1.95;;
47305;SDS011;33043;48.390;11.734;2022-07-04T07:23:32;3.42;;;2.30;;
47305;SDS011;33043;48.390;11.734;2022-07-04T07:25:59;3.72;;;2.03;;
47305;SDS011;33043;48.390;11.734;2022-07-04T07:28:25;2.30;;;1.87;;
47305;SDS011;33043;48.390;11.734;2022-07-04T07:30:51;3.78;;;1.92;;
47305;SDS011;33043;48.390;11.734;2022-07-04T07:33:17;7.07;;;2.12;;
47305;SDS011;33043;48.390;11.734;2022-07-04T07:35:44;3.87;;;1.98;;
47305;SDS011;33043;48.390;11.734;2022-07-04T07:38:10;2.40;;;2.03;;
47305;SDS011;33043;48.390;11.734;2022-07-04T07:40:36;8.18;;;2.30;;
47305;SDS011;33043;48.390;11.734;2022-07-04T07:43:02;5.22;;;1.70;;
47305;SDS011;33043;48.390;11.734;2022-07-04T07:45:29;3.70;;;1.75;;
47305;SDS011;33043;48.390;11.734;2022-07-04T07:47:55;4.30;;;1.85;;
47305;SDS011;33043;48.390;11.734;2022-07-04T07:50:21;3.97;;;2.10;;
47305;SDS011;33043;48.390;11.734;2022-07-04T07:52:48;6.70;;;2.20;;
47305;SDS011;33043;48.390;11.734;2022-07-04T07:55:14;3.17;;;2.10;;
47305;SDS011;33043;48.390;11.734;2022-07-04T07:57:40;7.32;;;2.40;;
47305;SDS011;33043;48.390;11.734;2022-07-04T08:00:07;4.12;;;1.58;;
47305;SDS011;33043;48.390;11.734;2022-07-04T08:02:33;2.85;;;1.80;;
47305;SDS011;33043;48.390;11.734;2022-07-04T08:05:18;1.85;;;1.62;;
47305;SDS011;33043;48.390;11.734;2022-07-04T08:07:44;3.87;;;2.17;;
47305;SDS011;33043;48.390;11.734;2022-07-04T08:10:11;2.83;;;2.10;;
47305;SDS011;33043;48.390;11.734;2022-07-04T08:12:38;6.47;;;2.20;;
47305;SDS011;33043;48.390;11.734;2022-07-04T08:15:04;3.35;;;1.52;;
47305;SDS011;33043;48.390;11.734;2022-07-04T08:17:31;9.25;;;1.70;;
47305;SDS011;33043;48.390;11.734;2022-07-04T08:19:57;6.95;;;1.52;;
47305;SDS011;33043;48.390;11.734;2022-07-04T08:22:23;14.80;;;2.62;;
47305;SDS011;33043;48.390;11.734;2022-07-04T08:24:49;11.95;;;2.00;;
47305;SDS011;33043;48.390;11.734;2022-07-04T08:27:16;29.05;;;4.10;;
47305;SDS011;33043;48.390;11.734;2022-07-04T08:29:42;14.75;;;2.25;;
47305;SDS011;33043;48.390;11.734;2022-07-04T08:32:08;20.58;;;2.20;;
47305;SDS011;33043;48.390;11.734;2022-07-04T08:34:35;21.15;;;3.55;;
47305;SDS011;33043;48.390;11.734;2022-07-04T08:37:01;8.10;;;1.75;;
47305;SDS011;33043;48.390;11.734;2022-07-04T08:39:28;6.70;;;1.98;;
47305;SDS011;33043;48.390;11.734;2022-07-04T08:41:55;2.80;;;1.33;;
47305;SDS011;33043;48.390;11.734;2022-07-04T08:44:23;8.15;;;1.85;;
47305;SDS011;33043;48.390;11.734;2022-07-04T08:46:50;1.35;;;1.20;;
47305;SDS011;33043;48.390;11.734;2022-07-04T08:49:20;3.75;;;1.33;;
47305;SDS011;33043;48.390;11.734;2022-07-04T08:51:51;3.33;;;1.27;;
47305;SDS011;33043;48.390;11.734;2022-07-04T08:54:24;5.55;;;1.35;;
47305;SDS011;33043;48.390;11.734;2022-07-04T08:57:28;4.25;;;1.20;;
47305;SDS011;33043;48.390;11.734;2022-07-04T09:00:14;4.47;;;0.95;;
47305;SDS011;33043;48.390;11.734;2022-07-04T09:02:40;8.10;;;1.30;;
47305;SDS011;33043;48.390;11.734;2022-07-04T09:05:07;5.75;;;1.20;;
47305;SDS011;33043;48.390;11.734;2022-07-04T09:07:34;4.30;;;1.30;;
47305;SDS011;33043;48.390;11.734;2022-07-04T09:10:00;12.35;;;1.77;;
47305;SDS011;33043;48.390;11.734;2022-07-04T09:12:28;2.55;;;1.08;;
47305;SDS011;33043;48.390;11.734;2022-07-04T09:14:54;2.47;;;1.00;;
47305;SDS011;33043;48.390;11.734;2022-07-04T09:17:22;2.37;;;1.08;;
47305;SDS011;33043;48.390;11.734;2022-07-04T09:22:33;5.78;;;1.33;;
47305;SDS011;33043;48.390;11.734;2022-07-04T09:25:00;4.07;;;1.25;;
47305;SDS011;33043;48.390;11.734;2022-07-04T09:27:38;5.40;;;1.17;;
47305;SDS011;33043;48.390;11.734;2022-07-04T09:30:10;3.30;;;1.40;;
47305;SDS011;33043;48.390;11.734;2022-07-04T09:32:41;4.50;;;1.27;;
47305;SDS011;33043;48.390;11.734;2022-07-04T09:35:08;7.10;;;1.10;;
47305;SDS011;33043;48.390;11.734;2022-07-04T09:37:39;5.72;;;1.25;;
47305;SDS011;33043;48.390;11.734;2022-07-04T09:40:10;1.30;;;0.93;;
47305;SDS011;33043;48.390;11.734;2022-07-04T09:42:38;1.48;;;0.95;;
47305;SDS011;33043;48.390;11.734;2022-07-04T09:45:08;3.45;;;1.30;;
47305;SDS011;33043;48.390;11.734;2022-07-04T09:47:36;5.27;;;1.43;;
47305;SDS011;33043;48.390;11.734;2022-07-04T09:50:03;21.70;;;2.12;;
47305;SDS011;33043;48.390;11.734;2022-07-04T09:52:30;7.35;;;1.00;;
47305;SDS011;33043;48.390;11.734;2022-07-04T09:54:57;4.72;;;1.20;;
47305;SDS011;33043;48.390;11.734;2022-07-04T09:57:24;7.95;;;1.45;;
47305;SDS011;33043;48.390;11.734;2022-07-04T09:59:51;4.25;;;0.90;;
47305;SDS011;33043;48.390;11.734;2022-07-04T10:02:18;3.78;;;1.10;;
47305;SDS011;33043;48.390;11.734;2022-07-04T10:04:51;5.32;;;1.10;;
47305;SDS011;33043;48.390;11.734;2022-07-04T10:10:27;1.90;;;0.70;;
47305;SDS011;33043;48.390;11.734;2022-07-04T10:13:01;7.68;;;1.37;;
47305;SDS011;33043;48.390;11.734;2022-07-04T10:15:27;10.05;;;1.30;;
47305;SDS011;33043;48.390;11.734;2022-07-04T10:17:54;1.95;;;0.80;;
47305;SDS011;33043;48.390;11.734;2022-07-04T10:20:20;2.00;;;1.08;;
47305;SDS011;33043;48.390;11.734;2022-07-04T10:22:46;3.75;;;0.85;;
47305;SDS011;33043;48.390;11.734;2022-07-04T10:25:13;2.47;;;0.95;;
47305;SDS011;33043;48.390;11.734;2022-07-04T10:27:39;18.92;;;1.55;;
47305;SDS011;33043;48.390;11.734;2022-07-04T10:30:06;2.80;;;1.17;;
47305;SDS011;33043;48.390;11.734;2022-07-04T10:32:33;1.92;;;0.85;;
47305;SDS011;33043;48.390;11.734;2022-07-04T10:35:00;1.52;;;1.02;;
47305;SDS011;33043;48.390;11.734;2022-07-04T10:37:57;1.00;;;0.80;;
47305;SDS011;33043;48.390;11.734;2022-07-04T10:40:30;4.47;;;0.90;;
47305;SDS011;33043;48.390;11.734;2022-07-04T10:42:59;4.12;;;0.88;;
47305;SDS011;33043;48.390;11.734;2022-07-04T10:45:31;1.05;;;0.80;;
47305;SDS011;33043;48.390;11.734;2022-07-04T10:50:27;3.92;;;0.95;;
47305;SDS011;33043;48.390;11.734;2022-07-04T10:53:09;2.97;;;1.00;;
47305;SDS011;33043;48.390;11.734;2022-07-04T10:55:36;3.00;;;0.77;;
47305;SDS011;33043;48.390;11.734;2022-07-04T10:58:02;2.95;;;1.05;;
47305;SDS011;33043;48.390;11.734;2022-07-04T11:00:28;1.27;;;1.10;;
47305;SDS011;33043;48.390;11.734;2022-07-04T11:03:14;4.57;;;1.27;;
47305;SDS011;33043;48.390;11.734;2022-07-04T11:05:41;5.12;;;1.10;;
47305;SDS011;33043;48.390;11.734;2022-07-04T11:08:07;10.63;;;1.05;;
47305;SDS011;33043;48.390;11.734;2022-07-04T11:10:36;2.25;;;0.90;;
47305;SDS011;33043;48.390;11.734;2022-07-04T11:13:05;2.15;;;1.05;;
47305;SDS011;33043;48.390;11.734;2022-07-04T11:17:59;1.83;;;0.65;;
47305;SDS011;33043;48.390;11.734;2022-07-04T11:20:27;2.78;;;0.93;;
47305;SDS011;33043;48.390;11.734;2022-07-04T11:23:03;1.83;;;1.02;;
47305;SDS011;33043;48.390;11.734;2022-07-04T11:25:29;2.03;;;0.90;;
47305;SDS011;33043;48.390;11.734;2022-07-04T11:27:56;1.95;;;0.82;;
47305;SDS011;33043;48.390;11.734;2022-07-04T11:30:24;1.40;;;0.93;;
47305;SDS011;33043;48.390;11.734;2022-07-04T11:32:50;3.45;;;1.30;;
47305;SDS011;33043;48.390;11.734;2022-07-04T11:35:19;4.22;;;1.00;;
47305;SDS011;33043;48.390;11.734;2022-07-04T11:37:46;1.67;;;1.20;;
47305;SDS011;33043;48.390;11.734;2022-07-04T11:40:22;1.73;;;1.02;;
47305;SDS011;33043;48.390;11.734;2022-07-04T11:43:23;3.08;;;1.90;;
47305;SDS011;33043;48.390;11.734;2022-07-04T11:46:11;2.45;;;1.00;;
47305;SDS011;33043;48.390;11.734;2022-07-04T11:48:37;1.52;;;0.90;;
47305;SDS011;33043;48.390;11.734;2022-07-04T11:51:03;6.05;;;1.58;;
47305;SDS011;33043;48.390;11.734;2022-07-04T11:53:41;2.05;;;1.10;;
47305;SDS011;33043;48.390;11.734;2022-07-04T11:56:07;5.22;;;1.17;;
47305;SDS011;33043;48.390;11.734;2022-07-04T11:58:41;3.42;;;0.95;;
47305;SDS011;33043;48.390;11.734;2022-07-04T12:01:11;1.52;;;1.20;;
47305;SDS011;33043;48.390;11.734;2022-07-04T12:03:37;3.60;;;1.00;;
47305;SDS011;33043;48.390;11.734;2022-07-04T12:06:04;2.53;;;1.20;;
47305;SDS011;33043;48.390;11.734;2022-07-04T12:08:31;8.32;;;1.27;;
47305;SDS011;33043;48.390;11.734;2022-07-04T12:10:58;8.38;;;1.37;;
47305;SDS011;33043;48.390;11.734;2022-07-04T12:13:25;8.85;;;1.30;;
47305;SDS011;33043;48.390;11.734;2022-07-04T12:15:52;8.35;;;1.75;;
47305;SDS011;33043;48.390;11.734;2022-07-04T12:18:19;5.35;;;1.62;;
47305;SDS011;33043;48.390;11.734;2022-07-04T12:20:46;5.78;;;1.52;;
47305;SDS011;33043;48.390;11.734;2022-07-04T12:23:13;4.10;;;2.05;;
47305;SDS011;33043;48.390;11.734;2022-07-04T12:25:39;10.38;;;1.10;;
47305;SDS011;33043;48.390;11.734;2022-07-04T12:28:10;3.22;;;1.40;;
47305;SDS011;33043;48.390;11.734;2022-07-04T12:30:41;5.37;;;1.30;;
47305;SDS011;33043;48.390;11.734;2022-07-04T12:33:14;4.57;;;1.67;;
47305;SDS011;33043;48.390;11.734;2022-07-04T12:35:44;3.37;;;1.60;;
47305;SDS011;33043;48.390;11.734;2022-07-04T12:38:29;16.30;;;2.90;;
47305;SDS011;33043;48.390;11.734;2022-07-04T12:41:00;20.05;;;2.47;;
47305;SDS011;33043;48.390;11.734;2022-07-04T12:43:43;4.93;;;1.37;;
47305;SDS011;33043;48.390;11.734;2022-07-04T12:48:36;3.05;;;1.15;;
47305;SDS011;33043;48.390;11.734;2022-07-04T12:51:10;4.00;;;1.10;;
47305;SDS011;33043;48.390;11.734;2022-07-04T12:53:37;3.70;;;1.30;;
47305;SDS011;33043;48.390;11.734;2022-07-04T12:56:03;1.55;;;1.00;;
47305;SDS011;33043;48.390;11.734;2022-07-04T12:58:30;2.35;;;1.30;;
47305;SDS011;33043;48.390;11.734;2022-07-04T13:00:56;2.97;;;1.10;;
47305;SDS011;33043;48.390;11.734;2022-07-04T13:03:22;1.95;;;1.15;;
47305;SDS011;33043;48.390;11.734;2022-07-04T13:05:49;4.68;;;1.27;;
47305;SDS011;33043;48.390;11.734;2022-07-04T13:08:15;2.90;;;1.48;;
47305;SDS011;33043;48.390;11.734;2022-07-04T13:10:42;2.20;;;1.10;;
47305;SDS011;33043;48.390;11.734;2022-07-04T13:13:08;2.42;;;1.10;;
47305;SDS011;33043;48.390;11.734;2022-07-04T13:15:35;1.67;;;1.08;;
47305;SDS011;33043;48.390;11.734;2022-07-04T13:18:01;8.57;;;1.60;;
47305;SDS011;33043;48.390;11.734;2022-07-04T13:20:27;4.28;;;1.30;;
47305;SDS011;33043;48.390;11.734;2022-07-04T13:22:54;3.35;;;1.40;;
47305;SDS011;33043;48.390;11.734;2022-07-04T13:25:20;3.30;;;1.20;;
47305;SDS011;33043;48.390;11.734;2022-07-04T13:27:47;4.07;;;1.60;;
47305;SDS011;33043;48.390;11.734;2022-07-04T13:30:14;2.47;;;1.20;;
47305;SDS011;33043;48.390;11.734;2022-07-04T13:32:40;2.00;;;1.23;;
47305;SDS011;33043;48.390;11.734;2022-07-04T13:35:06;2.20;;;1.23;;
47305;SDS011;33043;48.390;11.734;2022-07-04T13:37:33;4.07;;;1.37;;
47305;SDS011;33043;48.390;11.734;2022-07-04T13:39:59;1.20;;;1.10;;
47305;SDS011;33043;48.390;11.734;2022-07-04T13:42:25;1.77;;;1.17;;
47305;SDS011;33043;48.390;11.734;2022-07-04T13:45:10;2.40;;;1.20;;
47305;SDS011;33043;48.390;11.734;2022-07-04T13:47:39;2.45;;;1.30;;
47305;SDS011;33043;48.390;11.734;2022-07-04T13:50:05;2.05;;;1.00;;
47305;SDS011;33043;48.390;11.734;2022-07-04T13:52:32;1.83;;;1.30;;
47305;SDS011;33043;48.390;11.734;2022-07-04T13:54:58;3.78;;;1.98;;
47305;SDS011;33043;48.390;11.734;2022-07-04T13:57:24;1.65;;;1.23;;
47305;SDS011;33043;48.390;11.734;2022-07-04T13:59:51;1.23;;;1.10;;
47305;SDS011;33043;48.390;11.734;2022-07-04T14:02:17;2.85;;;1.25;;
47305;SDS011;33043;48.390;11.734;2022-07-04T14:04:43;3.40;;;1.35;;
47305;SDS011;33043;48.390;11.734;2022-07-04T14:07:10;2.30;;;1.35;;
47305;SDS011;33043;48.390;11.734;2022-07-04T14:09:36;4.22;;;1.80;;
47305;SDS011;33043;48.390;11.734;2022-07-04T14:12:03;4.50;;;1.73;;
47305;SDS011;33043;48.390;11.734;2022-07-04T14:14:29;10.40;;;1.62;;
47305;SDS011;33043;48.390;11.734;2022-07-04T14:16:55;15.65;;;3.12;;
47305;SDS011;33043;48.390;11.734;2022-07-04T14:19:22;12.07;;;2.08;;
47305;SDS011;33043;48.390;11.734;2022-07-04T14:21:48;6.32;;;1.50;;
47305;SDS011;33043;48.390;11.734;2022-07-04T14:24:14;3.03;;;1.17;;
47305;SDS011;33043;48.390;11.734;2022-07-04T14:26:41;17.52;;;1.83;;
47305;SDS011;33043;48.390;11.734;2022-07-04T14:29:08;3.75;;;1.50;;
47305;SDS011;33043;48.390;11.734;2022-07-04T14:31:34;2.22;;;1.60;;
47305;SDS011;33043;48.390;11.734;2022-07-04T14:34:01;1.75;;;1.10;;
47305;SDS011;33043;48.390;11.734;2022-07-04T14:36:28;2.28;;;1.25;;
47305;SDS011;33043;48.390;11.734;2022-07-04T14:38:54;7.68;;;1.30;;
47305;SDS011;33043;48.390;11.734;2022-07-04T14:41:20;10.52;;;1.92;;
47305;SDS011;33043;48.390;11.734;2022-07-04T14:43:47;2.37;;;1.40;;
47305;SDS011;33043;48.390;11.734;2022-07-04T14:46:13;1.77;;;1.30;;
47305;SDS011;33043;48.390;11.734;2022-07-04T14:48:39;1.62;;;1.50;;
47305;SDS011;33043;48.390;11.734;2022-07-04T14:51:05;1.80;;;1.23;;
47305;SDS011;33043;48.390;11.734;2022-07-04T14:53:32;2.55;;;1.33;;
47305;SDS011;33043;48.390;11.734;2022-07-04T14:55:58;8.23;;;1.70;;
47305;SDS011;33043;48.390;11.734;2022-07-04T14:58:24;4.28;;;1.83;;
47305;SDS011;33043;48.390;11.734;2022-07-04T15:00:51;28.27;;;2.65;;
47305;SDS011;33043;48.390;11.734;2022-07-04T15:03:17;12.20;;;2.00;;
47305;SDS011;33043;48.390;11.734;2022-07-04T15:05:43;5.60;;;1.52;;
47305;SDS011;33043;48.390;11.734;2022-07-04T15:08:10;3.60;;;1.23;;
47305;SDS011;33043;48.390;11.734;2022-07-04T15:10:36;4.87;;;1.73;;
47305;SDS011;33043;48.390;11.734;2022-07-04T15:13:03;1.85;;;1.67;;
47305;SDS011;33043;48.390;11.734;2022-07-04T15:15:29;1.58;;;1.48;;
47305;SDS011;33043;48.390;11.734;2022-07-04T15:17:55;7.00;;;1.35;;
47305;SDS011;33043;48.390;11.734;2022-07-04T15:20:21;4.12;;;1.48;;
47305;SDS011;33043;48.390;11.734;2022-07-04T15:23:06;4.80;;;1.62;;
47305;SDS011;33043;48.390;11.734;2022-07-04T15:25:51;10.00;;;2.05;;
47305;SDS011;33043;48.390;11.734;2022-07-04T15:28:18;4.15;;;2.08;;
47305;SDS011;33043;48.390;11.734;2022-07-04T15:30:44;11.32;;;2.10;;
47305;SDS011;33043;48.390;11.734;2022-07-04T15:33:10;3.95;;;1.50;;
47305;SDS011;33043;48.390;11.734;2022-07-04T15:35:43;8.30;;;2.08;;
47305;SDS011;33043;48.390;11.734;2022-07-04T15:38:11;7.35;;;1.67;;
47305;SDS011;33043;48.390;11.734;2022-07-04T15:40:40;4.62;;;1.65;;
47305;SDS011;33043;48.390;11.734;2022-07-04T15:43:07;5.30;;;1.45;;
47305;SDS011;33043;48.390;11.734;2022-07-04T15:45:34;3.08;;;1.90;;
47305;SDS011;33043;48.390;11.734;2022-07-04T15:48:02;3.33;;;1.60;;
47305;SDS011;33043;48.390;11.734;2022-07-04T15:50:28;2.53;;;2.25;;
47305;SDS011;33043;48.390;11.734;2022-07-04T15:52:55;7.25;;;1.60;;
47305;SDS011;33043;48.390;11.734;2022-07-04T15:55:21;4.85;;;2.08;;
47305;SDS011;33043;48.390;11.734;2022-07-04T15:57:48;4.10;;;1.75;;
47305;SDS011;33043;48.390;11.734;2022-07-04T16:00:15;2.75;;;1.85;;
47305;SDS011;33043;48.390;11.734;2022-07-04T16:02:43;1.85;;;1.60;;
47305;SDS011;33043;48.390;11.734;2022-07-04T16:05:10;4.68;;;1.80;;
47305;SDS011;33043;48.390;11.734;2022-07-04T16:07:37;2.80;;;1.35;;
47305;SDS011;33043;48.390;11.734;2022-07-04T16:10:04;2.67;;;1.75;;
47305;SDS011;33043;48.390;11.734;2022-07-04T16:12:32;2.10;;;1.70;;
47305;SDS011;33043;48.390;11.734;2022-07-04T16:14:58;1.77;;;1.25;;
47305;SDS011;33043;48.390;11.734;2022-07-04T16:17:25;3.28;;;1.67;;
47305;SDS011;33043;48.390;11.734;2022-07-04T16:19:51;4.37;;;1.80;;
47305;SDS011;33043;48.390;11.734;2022-07-04T16:22:18;3.20;;;1.98;;
47305;SDS011;33043;48.390;11.734;2022-07-04T16:24:44;2.08;;;1.62;;
47305;SDS011;33043;48.390;11.734;2022-07-04T16:27:10;7.65;;;2.12;;
47305;SDS011;33043;48.390;11.734;2022-07-04T16:29:36;4.85;;;1.50;;
47305;SDS011;33043;48.390;11.734;2022-07-04T16:32:03;3.40;;;1.45;;
47305;SDS011;33043;48.390;11.734;2022-07-04T16:34:30;4.45;;;1.75;;
47305;SDS011;33043;48.390;11.734;2022-07-04T16:36:57;3.35;;;2.00;;
47305;SDS011;33043;48.390;11.734;2022-07-04T16:39:23;4.37;;;1.70;;
47305;SDS011;33043;48.390;11.734;2022-07-04T16:41:50;3.17;;;1.73;;
47305;SDS011;33043;48.390;11.734;2022-07-04T16:44:17;3.90;;;1.92;;
47305;SDS011;33043;48.390;11.734;2022-07-04T16:46:43;3.47;;;1.70;;
47305;SDS011;33043;48.390;11.734;2022-07-04T16:49:10;4.37;;;1.65;;
47305;SDS011;33043;48.390;11.734;2022-07-04T16:51:36;1.75;;;1.60;;
47305;SDS011;33043;48.390;11.734;2022-07-04T16:54:03;4.03;;;1.80;;
47305;SDS011;33043;48.390;11.734;2022-07-04T16:56:31;4.95;;;1.75;;
47305;SDS011;33043;48.390;11.734;2022-07-04T16:58:59;2.22;;;1.58;;
47305;SDS011;33043;48.390;11.734;2022-07-04T17:01:26;5.72;;;1.75;;
47305;SDS011;33043;48.390;11.734;2022-07-04T17:03:52;2.45;;;1.77;;
47305;SDS011;33043;48.390;11.734;2022-07-04T17:06:19;8.82;;;1.90;;
47305;SDS011;33043;48.390;11.734;2022-07-04T17:08:46;3.95;;;1.67;;
47305;SDS011;33043;48.390;11.734;2022-07-04T17:11:13;5.15;;;1.70;;
47305;SDS011;33043;48.390;11.734;2022-07-04T17:13:41;2.83;;;1.50;;
47305;SDS011;33043;48.390;11.734;2022-07-04T17:16:08;1.58;;;1.42;;
47305;SDS011;33043;48.390;11.734;2022-07-04T17:18:34;4.20;;;1.60;;
47305;SDS011;33043;48.390;11.734;2022-07-04T17:21:03;2.25;;;1.60;;
47305;SDS011;33043;48.390;11.734;2022-07-04T17:23:29;8.23;;;3.35;;
47305;SDS011;33043;48.390;11.734;2022-07-04T17:25:55;2.92;;;1.65;;
47305;SDS011;33043;48.390;11.734;2022-07-04T17:28:23;4.95;;;1.60;;
47305;SDS011;33043;48.390;11.734;2022-07-04T17:30:50;5.90;;;1.87;;
47305;SDS011;33043;48.390;11.734;2022-07-04T17:33:18;2.58;;;1.55;;
47305;SDS011;33043;48.390;11.734;2022-07-04T17:35:45;7.75;;;1.75;;
47305;SDS011;33043;48.390;11.734;2022-07-04T17:38:11;7.07;;;1.60;;
47305;SDS011;33043;48.390;11.734;2022-07-04T17:40:38;7.78;;;1.65;;
47305;SDS011;33043;48.390;11.734;2022-07-04T17:43:04;3.75;;;1.77;;
47305;SDS011;33043;48.390;11.734;2022-07-04T17:45:30;2.62;;;1.60;;
47305;SDS011;33043;48.390;11.734;2022-07-04T17:47:57;4.32;;;1.55;;
47305;SDS011;33043;48.390;11.734;2022-07-04T17:50:23;2.12;;;1.70;;
47305;SDS011;33043;48.390;11.734;2022-07-04T17:52:51;3.22;;;1.60;;
47305;SDS011;33043;48.390;11.734;2022-07-04T17:55:19;5.32;;;2.08;;
47305;SDS011;33043;48.390;11.734;2022-07-04T17:57:45;7.35;;;2.92;;
47305;SDS011;33043;48.390;11.734;2022-07-04T18:00:11;3.42;;;2.00;;
47305;SDS011;33043;48.390;11.734;2022-07-04T18:02:38;3.15;;;1.87;;
47305;SDS011;33043;48.390;11.734;2022-07-04T18:05:04;3.50;;;1.62;;
47305;SDS011;33043;48.390;11.734;2022-07-04T18:07:30;3.75;;;2.17;;
47305;SDS011;33043;48.390;11.734;2022-07-04T18:09:56;9.68;;;2.00;;
47305;SDS011;33043;48.390;11.734;2022-07-04T18:12:25;3.15;;;2.17;;
47305;SDS011;33043;48.390;11.734;2022-07-04T18:14:51;3.90;;;1.73;;
47305;SDS011;33043;48.390;11.734;2022-07-04T18:17:17;2.72;;;1.70;;
47305;SDS011;33043;48.390;11.734;2022-07-04T18:19:47;4.10;;;1.75;;